createdAt,value
2023-08-13T00:00:46.294Z,100.00
2023-08-13T00:03:12.853Z,100.00
2023-08-13T00:05:39.400Z,100.00
2023-08-13T00:08:06.306Z,100.00
2023-08-13T00:10:32.872Z,100.00
2023-08-13T00:12:59.598Z,100.00
2023-08-13T00:15:26.032Z,100.00
2023-08-13T00:17:52.591Z,100.00
2023-08-13T00:20:19.370Z,100.00
2023-08-13T00:22:45.894Z,100.00
2023-08-13T00:25:12.425Z,100.00
2023-08-13T00:27:38.899Z,100.00
2023-08-13T00:30:07.228Z,100.00
2023-08-13T00:32:34.193Z,100.00
2023-08-13T00:35:00.652Z,100.00
2023-08-13T00:37:27.136Z,100.00
2023-08-13T00:39:53.613Z,100.00
2023-08-13T00:42:20.042Z,100.00
2023-08-13T00:44:46.796Z,100.00
2023-08-13T00:47:13.340Z,100.00
2023-08-13T00:49:40.319Z,100.00
2023-08-13T00:52:08.123Z,100.00
2023-08-13T00:54:36.299Z,100.00
2023-08-13T00:57:03.780Z,100.00
2023-08-13T00:59:33.277Z,100.00
2023-08-13T01:02:00.066Z,100.00
2023-08-13T01:04:26.654Z,100.00
2023-08-13T01:07:04.692Z,100.00
2023-08-13T01:09:49.063Z,100.00
2023-08-13T01:12:28.972Z,100.00
2023-08-13T01:15:09.149Z,100.00
2023-08-13T01:17:37.135Z,100.00
2023-08-13T01:20:08.056Z,99.81
2023-08-13T01:22:39.139Z,100.00
2023-08-13T01:25:10.417Z,99.96
2023-08-13T01:27:52.638Z,100.00
2023-08-13T01:30:25.201Z,99.88
2023-08-13T01:33:01.871Z,99.50
2023-08-13T01:35:31.137Z,99.96
2023-08-13T01:38:00.656Z,99.81
2023-08-13T01:40:27.608Z,99.98
2023-08-13T01:42:54.241Z,99.85
2023-08-13T01:45:21.768Z,99.21
2023-08-13T01:47:49.751Z,99.16
2023-08-13T01:50:16.263Z,99.13
2023-08-13T01:52:43.418Z,99.52
2023-08-13T01:55:10.854Z,100.00
2023-08-13T01:57:37.358Z,100.00
2023-08-13T02:00:05.100Z,100.00
2023-08-13T02:02:32.249Z,100.00
2023-08-13T02:04:58.849Z,100.00
2023-08-13T02:07:25.443Z,100.00
2023-08-13T02:09:52.007Z,100.00
2023-08-13T02:12:19.964Z,100.00
2023-08-13T02:14:46.540Z,100.00
2023-08-13T02:17:15.502Z,100.00
2023-08-13T02:19:41.932Z,100.00
2023-08-13T02:22:08.978Z,100.00
2023-08-13T02:24:35.462Z,100.00
2023-08-13T02:27:02.090Z,100.00
2023-08-13T02:29:28.698Z,100.00
2023-08-13T02:31:56.411Z,100.00
2023-08-13T02:34:26.720Z,100.00
2023-08-13T02:36:53.264Z,100.00
2023-08-13T02:39:19.970Z,100.00
2023-08-13T02:41:46.432Z,100.00
2023-08-13T02:44:13.014Z,100.00
2023-08-13T02:46:39.557Z,100.00
2023-08-13T02:49:06.121Z,100.00
2023-08-13T02:51:32.633Z,100.00
2023-08-13T02:53:59.068Z,100.00
2023-08-13T02:56:25.550Z,100.00
2023-08-13T02:58:52.032Z,100.00
2023-08-13T03:01:18.512Z,100.00
2023-08-13T03:03:52.084Z,100.00
2023-08-13T03:06:21.514Z,100.00
2023-08-13T03:08:48.569Z,100.00
2023-08-13T03:11:15.186Z,100.00
2023-08-13T03:13:41.882Z,100.00
2023-08-13T03:16:09.207Z,100.00
2023-08-13T03:18:36.142Z,100.00
2023-08-13T03:21:05.865Z,100.00
2023-08-13T03:23:33.579Z,100.00
2023-08-13T03:26:01.474Z,100.00
2023-08-13T03:28:29.209Z,100.00
2023-08-13T03:31:02.662Z,100.00
2023-08-13T03:33:40.475Z,100.00
2023-08-13T03:36:07.858Z,100.00
2023-08-13T03:38:35.279Z,100.00
2023-08-13T03:41:03.225Z,100.00
2023-08-13T03:43:29.661Z,100.00
2023-08-13T03:45:56.160Z,100.00
2023-08-13T03:48:22.682Z,100.00
2023-08-13T03:50:49.801Z,100.00
2023-08-13T03:53:16.297Z,100.00
2023-08-13T03:55:43.258Z,100.00
2023-08-13T03:58:09.871Z,100.00
2023-08-13T04:00:36.374Z,100.00
2023-08-13T04:03:15.305Z,100.00
2023-08-13T04:05:46.838Z,100.00
2023-08-13T04:08:13.404Z,100.00
2023-08-13T04:10:39.836Z,100.00
2023-08-13T04:13:06.646Z,100.00
2023-08-13T04:15:33.086Z,100.00
2023-08-13T04:18:00.219Z,100.00
2023-08-13T04:20:26.891Z,100.00
2023-08-13T04:22:53.324Z,100.00
2023-08-13T04:25:19.925Z,100.00
2023-08-13T04:27:46.567Z,100.00
2023-08-13T04:30:13.288Z,100.00
2023-08-13T04:32:40.434Z,100.00
2023-08-13T04:35:07.681Z,100.00
2023-08-13T04:37:34.360Z,100.00
2023-08-13T04:40:01.316Z,100.00
2023-08-13T04:42:31.213Z,100.00
2023-08-13T04:44:57.748Z,100.00
2023-08-13T04:47:24.611Z,100.00
2023-08-13T04:49:51.088Z,100.00
2023-08-13T04:52:17.809Z,100.00
2023-08-13T04:54:47.261Z,100.00
2023-08-13T04:57:14.011Z,100.00
2023-08-13T04:59:41.122Z,100.00
2023-08-13T05:02:08.418Z,100.00
2023-08-13T05:04:35.760Z,100.00
2023-08-13T05:07:02.310Z,100.00
2023-08-13T05:09:28.859Z,100.00
2023-08-13T05:11:55.380Z,100.00
2023-08-13T05:14:23.439Z,100.00
2023-08-13T05:16:50.202Z,100.00
2023-08-13T05:19:16.628Z,100.00
2023-08-13T05:21:43.060Z,100.00
2023-08-13T05:24:10.352Z,100.00
2023-08-13T05:26:36.803Z,100.00
2023-08-13T05:29:04.284Z,100.00
2023-08-13T05:31:34.336Z,100.00
2023-08-13T05:34:01.326Z,100.00
2023-08-13T05:36:28.397Z,100.00
2023-08-13T05:38:55.206Z,100.00
2023-08-13T05:41:22.892Z,100.00
2023-08-13T05:43:51.427Z,100.00
2023-08-13T05:46:18.072Z,100.00
2023-08-13T05:48:45.161Z,100.00
2023-08-13T05:51:12.378Z,100.00
2023-08-13T05:53:39.549Z,100.00
2023-08-13T05:56:06.408Z,100.00
2023-08-13T05:58:32.968Z,100.00
2023-08-13T06:00:59.593Z,100.00
2023-08-13T06:03:27.671Z,100.00
2023-08-13T06:05:55.822Z,100.00
2023-08-13T06:08:22.316Z,100.00
2023-08-13T06:10:48.848Z,100.00
2023-08-13T06:13:16.418Z,100.00
2023-08-13T06:15:44.515Z,100.00
2023-08-13T06:18:12.113Z,100.00
2023-08-13T06:20:38.675Z,100.00
2023-08-13T06:23:05.177Z,100.00
2023-08-13T06:25:31.653Z,100.00
2023-08-13T06:27:58.141Z,100.00
2023-08-13T06:30:25.293Z,100.00
2023-08-13T06:32:51.966Z,100.00
2023-08-13T06:35:18.500Z,100.00
2023-08-13T06:38:00.218Z,100.00
2023-08-13T06:40:28.977Z,100.00
2023-08-13T06:42:55.590Z,100.00
2023-08-13T06:45:27.760Z,100.00
2023-08-13T06:47:57.599Z,100.00
2023-08-13T06:50:24.712Z,100.00
2023-08-13T06:52:51.169Z,100.00
2023-08-13T06:55:18.127Z,100.00
2023-08-13T06:57:44.565Z,100.00
2023-08-13T07:00:11.465Z,100.00
2023-08-13T07:02:38.777Z,100.00
2023-08-13T07:05:06.750Z,100.00
2023-08-13T07:07:36.097Z,99.79
2023-08-13T07:10:02.532Z,100.00
2023-08-13T07:12:29.000Z,100.00
2023-08-13T07:14:56.662Z,100.00
2023-08-13T07:17:23.385Z,100.00
2023-08-13T07:19:50.635Z,97.94
2023-08-13T07:22:17.706Z,96.45
2023-08-13T07:24:44.238Z,95.50
2023-08-13T07:27:11.420Z,94.75
2023-08-13T07:29:37.949Z,93.96
2023-08-13T07:32:06.274Z,94.25
2023-08-13T07:34:32.889Z,93.76
2023-08-13T07:36:59.476Z,93.35
2023-08-13T07:39:25.996Z,93.15
2023-08-13T07:41:52.491Z,92.87
2023-08-13T07:44:18.944Z,91.98
2023-08-13T07:46:45.538Z,91.83
2023-08-13T07:49:11.982Z,91.11
2023-08-13T07:51:38.755Z,91.28
2023-08-13T07:54:05.772Z,91.20
2023-08-13T07:56:32.735Z,91.29
2023-08-13T07:58:59.176Z,91.21
2023-08-13T08:01:30.103Z,90.61
2023-08-13T08:03:57.101Z,90.39
2023-08-13T08:06:23.724Z,89.87
2023-08-13T08:08:50.204Z,90.43
2023-08-13T08:11:16.665Z,90.87
2023-08-13T08:13:44.003Z,91.98
2023-08-13T08:16:10.471Z,92.53
2023-08-13T08:18:37.447Z,92.15
2023-08-13T08:21:04.010Z,90.86
2023-08-13T08:23:31.010Z,89.66
2023-08-13T08:25:57.488Z,88.71
2023-08-13T08:28:23.905Z,88.79
2023-08-13T08:30:50.526Z,88.76
2023-08-13T08:33:17.181Z,88.10
2023-08-13T08:35:43.733Z,87.32
2023-08-13T08:38:10.183Z,87.37
2023-08-13T08:40:37.048Z,87.01
2023-08-13T08:43:03.581Z,87.08
2023-08-13T08:45:30.369Z,86.63
2023-08-13T08:47:58.756Z,85.74
2023-08-13T08:50:25.695Z,84.54
2023-08-13T08:52:52.754Z,84.86
2023-08-13T08:55:20.243Z,84.35
2023-08-13T08:57:46.709Z,84.47
2023-08-13T09:00:13.608Z,83.96
2023-08-13T09:02:42.062Z,83.56
2023-08-13T09:05:08.951Z,82.52
2023-08-13T09:07:35.591Z,82.49
2023-08-13T09:10:05.818Z,81.59
2023-08-13T09:12:37.307Z,79.88
2023-08-13T09:15:08.790Z,78.57
2023-08-13T09:17:35.531Z,78.17
2023-08-13T09:20:10.100Z,77.97
2023-08-13T09:22:36.634Z,77.52
2023-08-13T09:25:03.856Z,78.50
2023-08-13T09:27:31.508Z,77.95
2023-08-13T09:30:03.835Z,79.21
2023-08-13T09:32:30.948Z,77.72
2023-08-13T09:34:58.523Z,76.37
2023-08-13T09:37:26.437Z,76.48
2023-08-13T09:39:53.155Z,75.74
2023-08-13T09:42:20.232Z,75.89
2023-08-13T09:44:49.308Z,75.98
2023-08-13T09:47:18.987Z,75.72
2023-08-13T09:49:46.370Z,74.51
2023-08-13T09:52:18.144Z,73.22
2023-08-13T09:55:15.214Z,73.28
2023-08-13T09:57:43.074Z,72.65
2023-08-13T10:00:11.871Z,71.32
2023-08-13T10:02:42.199Z,70.41
2023-08-13T10:05:09.524Z,70.96
2023-08-13T10:07:37.896Z,71.80
2023-08-13T10:10:08.263Z,71.06
2023-08-13T10:12:36.398Z,70.10
2023-08-13T10:15:02.923Z,68.84
2023-08-13T10:17:30.206Z,68.00
2023-08-13T10:19:57.816Z,66.42
2023-08-13T10:22:37.288Z,66.10
2023-08-13T10:25:04.859Z,67.68
2023-08-13T10:27:36.796Z,70.56
2023-08-13T10:30:14.177Z,70.69
2023-08-13T10:32:55.924Z,68.69
2023-08-13T10:35:35.671Z,67.00
2023-08-13T10:38:04.062Z,64.17
2023-08-13T10:40:31.361Z,63.29
2023-08-13T10:42:59.170Z,63.94
2023-08-13T10:45:28.990Z,62.83
2023-08-13T10:47:58.391Z,62.89
2023-08-13T10:50:37.881Z,63.03
2023-08-13T10:53:12.543Z,63.09
2023-08-13T10:55:44.927Z,61.13
2023-08-13T10:58:30.418Z,61.04
2023-08-13T11:01:21.554Z,60.74
2023-08-13T11:03:49.392Z,60.27
2023-08-13T11:06:16.090Z,60.37
2023-08-13T11:08:48.368Z,59.86
2023-08-13T11:11:17.446Z,60.70
2023-08-13T11:13:44.786Z,60.35
2023-08-13T11:16:12.487Z,60.15
2023-08-13T11:18:39.727Z,61.24
2023-08-13T11:21:06.740Z,62.43
2023-08-13T11:23:33.756Z,60.99
2023-08-13T11:26:00.390Z,61.32
2023-08-13T11:28:28.418Z,63.74
2023-08-13T11:30:57.754Z,61.60
2023-08-13T11:33:25.106Z,60.46
2023-08-13T11:35:52.496Z,60.55
2023-08-13T11:38:20.079Z,60.15
2023-08-13T11:40:47.545Z,59.35
2023-08-13T11:43:14.714Z,60.51
2023-08-13T11:45:42.043Z,57.23
2023-08-13T11:48:09.982Z,53.30
2023-08-13T11:50:38.382Z,52.87
2023-08-13T11:53:05.592Z,52.62
2023-08-13T11:55:33.713Z,51.07
2023-08-13T11:58:00.307Z,50.12
2023-08-13T12:00:30.361Z,50.85
2023-08-13T12:02:57.719Z,50.02
2023-08-13T12:05:32.685Z,47.79
2023-08-13T12:08:01.846Z,48.03
2023-08-13T12:10:29.764Z,47.81
2023-08-13T12:12:56.204Z,46.25
2023-08-13T12:15:25.016Z,44.71
2023-08-13T12:17:52.781Z,47.26
2023-08-13T12:20:20.052Z,46.30
2023-08-13T12:22:46.807Z,46.13
2023-08-13T12:25:13.278Z,45.31
2023-08-13T12:27:39.763Z,46.30
2023-08-13T12:30:07.167Z,48.43
2023-08-13T12:32:33.633Z,51.57
2023-08-13T12:35:00.128Z,47.80
2023-08-13T12:37:26.954Z,48.82
2023-08-13T12:39:53.835Z,48.60
2023-08-13T12:42:21.696Z,47.82
2023-08-13T12:44:49.746Z,48.09
2023-08-13T12:47:17.254Z,48.92
2023-08-13T12:49:43.695Z,50.83
2023-08-13T12:52:10.614Z,49.95
2023-08-13T12:54:37.087Z,50.66
2023-08-13T12:57:03.703Z,51.73
2023-08-13T12:59:30.194Z,51.65
2023-08-13T13:01:56.674Z,52.17
2023-08-13T13:04:23.142Z,52.51
2023-08-13T13:06:51.093Z,53.79
2023-08-13T13:09:17.574Z,54.91
2023-08-13T13:11:44.198Z,55.84
2023-08-13T13:14:10.713Z,55.94
2023-08-13T13:16:37.245Z,55.80
2023-08-13T13:19:03.956Z,57.02
2023-08-13T13:21:31.810Z,57.56
2023-08-13T13:23:59.117Z,57.78
2023-08-13T13:26:25.714Z,56.74
2023-08-13T13:28:52.127Z,58.33
2023-08-13T13:31:18.603Z,59.50
2023-08-13T13:33:45.037Z,59.42
2023-08-13T13:36:11.476Z,58.39
2023-08-13T13:38:37.931Z,59.47
2023-08-13T13:41:04.560Z,59.97
2023-08-13T13:43:31.062Z,58.47
2023-08-13T13:45:58.453Z,57.94
2023-08-13T13:48:24.928Z,57.75
2023-08-13T13:50:51.386Z,55.81
2023-08-13T13:53:20.453Z,55.70
2023-08-13T13:55:47.763Z,54.19
2023-08-13T13:58:14.355Z,51.10
2023-08-13T14:00:40.904Z,52.46
2023-08-13T14:03:07.532Z,48.06
2023-08-13T14:05:34.115Z,46.03
2023-08-13T14:08:00.672Z,42.10
2023-08-13T14:10:27.260Z,41.93
2023-08-13T14:12:53.837Z,41.88
2023-08-13T14:15:20.273Z,39.74
2023-08-13T14:17:46.714Z,38.47
2023-08-13T14:20:13.350Z,38.55
2023-08-13T14:22:39.817Z,39.45
2023-08-13T14:25:06.590Z,35.78
2023-08-13T14:27:33.091Z,37.70
2023-08-13T14:30:00.169Z,36.08
2023-08-13T14:32:26.840Z,37.11
2023-08-13T14:34:53.402Z,37.85
2023-08-13T14:37:19.825Z,35.90
2023-08-13T14:39:46.325Z,35.95
2023-08-13T14:42:13.789Z,37.92
2023-08-13T14:44:40.676Z,34.18
2023-08-13T14:47:07.693Z,35.18
2023-08-13T14:49:34.160Z,34.41
2023-08-13T14:52:00.660Z,32.90
2023-08-13T14:54:27.828Z,32.80
2023-08-13T14:56:54.385Z,30.63
2023-08-13T14:59:21.096Z,30.77
2023-08-13T15:01:50.190Z,30.89
2023-08-13T15:04:16.777Z,32.14
2023-08-13T15:06:43.700Z,31.40
2023-08-13T15:09:10.312Z,32.76
2023-08-13T15:11:36.771Z,32.66
2023-08-13T15:14:03.315Z,31.71
2023-08-13T15:16:29.829Z,32.08
2023-08-13T15:18:56.407Z,31.75
2023-08-13T15:21:22.849Z,31.98
2023-08-13T15:23:49.286Z,31.74
2023-08-13T15:26:15.708Z,31.31
2023-08-13T15:28:42.236Z,31.63
2023-08-13T15:31:10.795Z,32.78
2023-08-13T15:33:37.798Z,32.06
2023-08-13T15:36:04.664Z,32.96
2023-08-13T15:38:31.112Z,33.15
2023-08-13T15:40:58.752Z,33.64
2023-08-13T15:43:25.230Z,34.10
2023-08-13T15:45:51.657Z,33.46
2023-08-13T15:48:18.172Z,33.61
2023-08-13T15:50:46.439Z,33.08
2023-08-13T15:53:13.149Z,33.68
2023-08-13T15:55:40.351Z,32.71
2023-08-13T15:58:10.737Z,33.26
2023-08-13T16:00:38.245Z,33.79
2023-08-13T16:03:06.214Z,33.74
2023-08-13T16:05:33.475Z,33.41
2023-08-13T16:07:59.997Z,33.66
2023-08-13T16:10:26.523Z,34.08
2023-08-13T16:12:53.048Z,34.80
2023-08-13T16:15:19.613Z,34.57
2023-08-13T16:17:46.547Z,35.20
2023-08-13T16:20:14.144Z,36.55
2023-08-13T16:22:43.234Z,36.54
2023-08-13T16:25:10.579Z,35.77
2023-08-13T16:27:37.274Z,36.57
2023-08-13T16:30:04.816Z,36.76
2023-08-13T16:32:31.686Z,37.34
2023-08-13T16:34:58.246Z,36.14
2023-08-13T16:37:24.804Z,36.14
2023-08-13T16:39:51.298Z,37.18
2023-08-13T16:42:18.418Z,38.21
2023-08-13T16:44:45.147Z,37.71
2023-08-13T16:47:11.720Z,38.33
2023-08-13T16:49:38.166Z,38.69
2023-08-13T16:52:04.880Z,41.44
2023-08-13T16:54:31.346Z,39.57
2023-08-13T16:56:57.841Z,39.61
2023-08-13T16:59:24.304Z,40.01
2023-08-13T17:01:50.805Z,39.56
2023-08-13T17:04:17.514Z,39.63
2023-08-13T17:06:44.045Z,40.82
2023-08-13T17:09:10.644Z,45.99
2023-08-13T17:11:37.083Z,42.86
2023-08-13T17:14:03.659Z,40.03
2023-08-13T17:16:30.346Z,39.77
2023-08-13T17:18:56.878Z,41.60
2023-08-13T17:21:23.390Z,43.35
2023-08-13T17:23:50.110Z,45.80
2023-08-13T17:26:16.545Z,43.59
2023-08-13T17:28:43.424Z,41.58
2023-08-13T17:31:10.407Z,41.46
2023-08-13T17:33:36.822Z,42.78
2023-08-13T17:36:04.247Z,42.53
2023-08-13T17:38:30.887Z,43.17
2023-08-13T17:40:57.406Z,42.51
2023-08-13T17:43:23.924Z,43.23
2023-08-13T17:45:50.492Z,46.67
2023-08-13T17:48:19.125Z,47.48
2023-08-13T17:50:46.169Z,44.69
2023-08-13T17:53:12.882Z,44.43
2023-08-13T17:55:39.355Z,44.32
2023-08-13T17:58:05.806Z,43.80
2023-08-13T18:00:32.331Z,44.01
2023-08-13T18:02:58.918Z,47.82
2023-08-13T18:05:25.627Z,45.56
2023-08-13T18:07:58.281Z,44.77
2023-08-13T18:10:31.514Z,45.80
2023-08-13T18:12:57.989Z,46.41
2023-08-13T18:15:24.744Z,46.15
2023-08-13T18:17:51.672Z,52.43
2023-08-13T18:20:18.301Z,49.92
2023-08-13T18:22:44.902Z,51.63
2023-08-13T18:25:13.061Z,52.49
2023-08-13T18:27:40.897Z,55.93
2023-08-13T18:30:08.073Z,55.75
2023-08-13T18:32:34.935Z,56.36
2023-08-13T18:35:01.530Z,56.35
2023-08-13T18:37:28.165Z,59.92
2023-08-13T18:39:57.997Z,61.51
2023-08-13T18:42:24.599Z,60.67
2023-08-13T18:44:51.108Z,61.82
2023-08-13T18:47:17.659Z,63.29
2023-08-13T18:49:44.145Z,62.62
2023-08-13T18:52:10.600Z,64.13
2023-08-13T18:54:37.200Z,64.77
2023-08-13T18:57:03.856Z,65.97
2023-08-13T18:59:30.636Z,66.50
2023-08-13T19:01:57.106Z,67.32
2023-08-13T19:04:23.672Z,67.76
2023-08-13T19:06:50.085Z,67.73
2023-08-13T19:09:16.700Z,68.61
2023-08-13T19:11:43.186Z,69.40
2023-08-13T19:14:11.024Z,70.46
2023-08-13T19:16:38.388Z,70.55
2023-08-13T19:19:05.895Z,71.03
2023-08-13T19:21:32.872Z,71.34
2023-08-13T19:23:59.334Z,71.81
2023-08-13T19:26:26.017Z,72.87
2023-08-13T19:28:53.041Z,70.99
2023-08-13T19:31:19.583Z,70.02
2023-08-13T19:33:46.093Z,69.39
2023-08-13T19:36:13.939Z,69.19
2023-08-13T19:38:40.703Z,69.49
2023-08-13T19:41:07.274Z,69.64
2023-08-13T19:43:33.758Z,69.66
2023-08-13T19:46:00.367Z,69.86
2023-08-13T19:48:26.896Z,70.63
2023-08-13T19:50:54.203Z,70.93
2023-08-13T19:53:21.784Z,71.32
2023-08-13T19:55:50.811Z,72.22
2023-08-13T19:58:17.906Z,73.04
2023-08-13T20:00:44.652Z,73.74
2023-08-13T20:03:11.612Z,74.27
2023-08-13T20:05:38.620Z,75.24
2023-08-13T20:08:05.284Z,75.77
2023-08-13T20:10:32.861Z,76.25
2023-08-13T20:12:59.858Z,76.73
2023-08-13T20:15:26.998Z,76.98
2023-08-13T20:17:54.526Z,77.42
2023-08-13T20:20:21.364Z,78.36
2023-08-13T20:22:48.944Z,79.01
2023-08-13T20:25:16.686Z,80.08
2023-08-13T20:27:43.278Z,81.38
2023-08-13T20:30:09.934Z,82.37
2023-08-13T20:32:36.656Z,83.59
2023-08-13T20:35:04.431Z,84.86
2023-08-13T20:37:31.447Z,85.83
2023-08-13T20:39:58.472Z,86.30
2023-08-13T20:42:25.768Z,87.15
2023-08-13T20:44:52.482Z,87.85
2023-08-13T20:47:18.977Z,88.59
2023-08-13T20:49:45.870Z,89.00
2023-08-13T20:52:12.690Z,89.51
2023-08-13T20:54:39.162Z,90.01
2023-08-13T20:57:05.771Z,90.58
2023-08-13T20:59:32.559Z,91.27
2023-08-13T21:01:59.002Z,91.77
2023-08-13T21:04:25.508Z,92.18
2023-08-13T21:06:52.184Z,92.82
2023-08-13T21:09:19.141Z,93.29
2023-08-13T21:11:45.677Z,93.88
2023-08-13T21:14:12.189Z,94.21
2023-08-13T21:16:38.715Z,94.67
2023-08-13T21:19:05.258Z,94.97
2023-08-13T21:21:31.695Z,95.40
2023-08-13T21:23:58.184Z,95.87
2023-08-13T21:26:25.254Z,96.16
2023-08-13T21:28:51.981Z,96.83
2023-08-13T21:31:18.571Z,97.17
2023-08-13T21:33:45.089Z,97.52
2023-08-13T21:36:11.534Z,98.03
2023-08-13T21:38:38.179Z,98.19
2023-08-13T21:41:04.867Z,98.54
2023-08-13T21:43:31.303Z,99.11
2023-08-13T21:45:57.875Z,99.42
2023-08-13T21:48:24.324Z,99.56
2023-08-13T21:50:50.783Z,100.00
2023-08-13T21:53:17.252Z,100.00
2023-08-13T21:55:43.839Z,100.00
2023-08-13T21:58:10.384Z,100.00
2023-08-13T22:00:36.858Z,100.00
2023-08-13T22:03:04.269Z,100.00
2023-08-13T22:05:31.795Z,100.00
2023-08-13T22:07:58.325Z,100.00
2023-08-13T22:10:25.171Z,100.00
2023-08-13T22:12:51.616Z,100.00
2023-08-13T22:15:18.152Z,100.00
2023-08-13T22:17:44.722Z,100.00
2023-08-13T22:20:11.365Z,100.00
2023-08-13T22:22:37.817Z,100.00
2023-08-13T22:25:05.164Z,100.00
2023-08-13T22:27:31.650Z,100.00
2023-08-13T22:29:58.352Z,100.00
2023-08-13T22:32:25.156Z,100.00
2023-08-13T22:34:52.179Z,100.00
2023-08-13T22:37:18.777Z,100.00
2023-08-13T22:39:45.199Z,100.00
2023-08-13T22:42:11.662Z,100.00
2023-08-13T22:44:38.102Z,100.00
2023-08-13T22:47:05.011Z,100.00
2023-08-13T22:49:38.350Z,100.00
2023-08-13T22:52:07.645Z,100.00
2023-08-13T22:54:37.484Z,100.00
2023-08-13T22:57:06.514Z,100.00
2023-08-13T22:59:33.545Z,100.00
2023-08-13T23:02:01.560Z,100.00
2023-08-13T23:04:28.034Z,100.00
2023-08-13T23:06:58.004Z,100.00
2023-08-13T23:09:25.631Z,100.00
2023-08-13T23:11:52.511Z,100.00
2023-08-13T23:14:18.973Z,100.00
2023-08-13T23:16:45.486Z,100.00
2023-08-13T23:19:12.393Z,100.00
2023-08-13T23:21:39.602Z,100.00
2023-08-13T23:24:06.718Z,100.00
2023-08-13T23:26:33.187Z,100.00
2023-08-13T23:28:59.679Z,100.00
2023-08-13T23:31:26.291Z,100.00
2023-08-13T23:33:52.851Z,100.00
2023-08-13T23:36:19.337Z,100.00
2023-08-13T23:38:46.006Z,100.00
2023-08-13T23:41:12.480Z,100.00
2023-08-13T23:43:38.990Z,100.00
2023-08-13T23:46:05.569Z,100.00
2023-08-13T23:48:32.219Z,100.00
2023-08-13T23:51:00.456Z,100.00
2023-08-13T23:53:28.952Z,100.00
2023-08-13T23:55:55.428Z,100.00
2023-08-13T23:58:22.665Z,100.00
